ESOE/ORB METAR and TAF weather

Enter ICAO airport designator
Station Type Date Time Source
ESOE METAR 2021/05/11 17:20 UTC NOAA

ESOE 111720Z 02013KT CAVOK 17/08 Q1011


Station Type Date Time Source
ESOE Decoded METAR 2021/05/11 17:20 UTC NOAA

Orebro Private , Sweden (ESOE) 59-14N 015-03E
May 11, 2021 - 01:20 PM EDT / 2021.05.11 1720 UTC
Wind: from the NNE (020 degrees) at 15 MPH (13 KT):0
Visibility: greater than 7 mile(s):0
Temperature: 62 F (17 C)
Dew Point: 46 F (8 C)
Relative Humidity: 55%
Pressure (altimeter): 29.85 in. Hg (1011 hPa)
ob: ESOE 111720Z 02013KT CAVOK 17/08 Q1011
cycle: 17

Station Type Date Time Source
ESOE TAF 2016/03/16 04:36 UTC NOAA

TAF TAF ESOE 160330Z 1604/1624 23005KT 9000 BR NSC PROB40 1604/1607 1200 BR

Example: see airport list